Time;durP1;ratioP1;P1;durP2;ratioP2;P2;SDS_P1;SDS_P2;PMS_P1;PMS_P2;Temp;Humidity;BMP_temperature;BMP_pressure;BME280_temperature;BME280_humidity;BME280_pressure;Samples;Min_cycle;Max_cycle;Signal;HPM_P1;HPM_P2
2019/10/16 00:02:35;;;;;;;1.36;1.26;;;;;;;20.08;58.63;100242.05;;;;-52
2019/10/16 00:05:35;;;;;;;1.71;1.38;;;;;;;20.08;58.63;100243.06;;;;-52
2019/10/16 00:08:35;;;;;;;1.63;1.30;;;;;;;20.07;58.61;100246.03;;;;-52
2019/10/16 00:11:35;;;;;;;1.33;1.23;;;;;;;20.08;58.63;100254.69;;;;-52
2019/10/16 00:14:34;;;;;;;1.21;1.11;;;;;;;20.07;58.61;100253.58;;;;-51
2019/10/16 00:17:35;;;;;;;1.40;1.30;;;;;;;20.07;58.61;100252.91;;;;-52
2019/10/16 00:20:35;;;;;;;1.16;1.16;;;;;;;20.07;58.56;100254.66;;;;-52
2019/10/16 00:23:35;;;;;;;1.41;1.28;;;;;;;20.07;58.60;100260.35;;;;-52
2019/10/16 00:26:35;;;;;;;1.40;1.30;;;;;;;20.06;58.60;100262.36;;;;-52
2019/10/16 00:29:35;;;;;;;1.30;1.20;;;;;;;20.06;58.61;100260.85;;;;-53
2019/10/16 00:32:35;;;;;;;1.28;1.20;;;;;;;20.05;58.58;100265.30;;;;-51
2019/10/16 00:35:35;;;;;;;1.21;1.11;;;;;;;20.05;58.60;100275.30;;;;-52
2019/10/16 00:38:35;;;;;;;1.22;1.20;;;;;;;20.05;58.60;100277.87;;;;-52
2019/10/16 00:41:35;;;;;;;1.35;1.25;;;;;;;20.05;58.58;100278.98;;;;-52
2019/10/16 00:44:35;;;;;;;1.32;1.22;;;;;;;20.04;58.63;100286.99;;;;-51
2019/10/16 00:47:35;;;;;;;2.17;1.35;;;;;;;20.04;58.62;100293.03;;;;-52
2019/10/16 00:50:35;;;;;;;1.26;1.21;;;;;;;20.04;58.59;100296.95;;;;-52
2019/10/16 00:53:35;;;;;;;1.93;1.30;;;;;;;20.04;58.60;100300.91;;;;-52
2019/10/16 00:56:35;;;;;;;1.31;1.22;;;;;;;20.03;58.62;100301.80;;;;-52
2019/10/16 00:59:35;;;;;;;1.17;1.11;;;;;;;20.02;58.57;100302.84;;;;-52
2019/10/16 01:02:35;;;;;;;1.27;1.19;;;;;;;20.03;58.59;100305.22;;;;-52
2019/10/16 01:06:35;;;;;;;1.34;1.24;;;;;;;20.03;58.57;100307.23;;;;-52
2019/10/16 01:09:35;;;;;;;1.43;1.27;;;;;;;20.02;58.59;100303.00;;;;-52
2019/10/16 01:12:34;;;;;;;1.23;1.13;;;;;;;20.03;58.59;100309.81;;;;-51
2019/10/16 01:15:35;;;;;;;1.27;1.13;;;;;;;20.02;58.57;100306.19;;;;-52
2019/10/16 01:18:35;;;;;;;1.44;1.25;;;;;;;20.01;58.58;100305.65;;;;-52
2019/10/16 01:21:35;;;;;;;1.33;1.21;;;;;;;20.02;58.58;100309.31;;;;-52
2019/10/16 01:24:35;;;;;;;1.27;1.17;;;;;;;20.01;58.59;100312.35;;;;-51
2019/10/16 01:27:34;;;;;;;1.35;1.25;;;;;;;20.01;58.56;100309.84;;;;-52
2019/10/16 01:30:35;;;;;;;1.39;1.29;;;;;;;20.01;58.63;100311.08;;;;-52
2019/10/16 01:33:35;;;;;;;1.50;1.20;;;;;;;20.00;58.55;100313.82;;;;-51
2019/10/16 01:36:35;;;;;;;1.31;1.19;;;;;;;20.01;58.56;100314.93;;;;-52
2019/10/16 01:39:35;;;;;;;1.30;1.20;;;;;;;20.00;58.56;100314.05;;;;-52
2019/10/16 01:42:35;;;;;;;1.07;1.07;;;;;;;20.00;58.55;100313.08;;;;-52
2019/10/16 01:45:35;;;;;;;1.35;1.25;;;;;;;20.00;58.57;100313.66;;;;-59
2019/10/16 01:48:34;;;;;;;1.30;1.20;;;;;;;19.99;58.55;100315.96;;;;-58
2019/10/16 01:51:35;;;;;;;1.19;1.10;;;;;;;20.00;58.54;100315.39;;;;-58
2019/10/16 01:54:34;;;;;;;1.21;1.16;;;;;;;19.98;58.57;100310.36;;;;-58
2019/10/16 01:57:35;;;;;;;1.11;1.10;;;;;;;19.99;58.58;100311.53;;;;-59
2019/10/16 02:00:41;;;;;;;1.17;1.11;;;;;;;19.98;58.58;100312.61;;;;-59
2019/10/16 02:03:35;;;;;;;1.20;1.10;;;;;;;19.98;58.53;100308.91;;;;-58
2019/10/16 02:06:35;;;;;;;1.23;1.15;;;;;;;19.98;58.54;100311.36;;;;-58
2019/10/16 02:09:35;;;;;;;1.10;1.10;;;;;;;19.98;58.57;100316.13;;;;-58
2019/10/16 02:12:35;;;;;;;1.34;1.20;;;;;;;19.98;58.54;100313.84;;;;-59
2019/10/16 02:15:35;;;;;;;1.58;1.14;;;;;;;19.97;58.55;100313.37;;;;-51
2019/10/16 02:18:35;;;;;;;1.17;1.10;;;;;;;19.97;58.54;100315.52;;;;-49
2019/10/16 02:21:34;;;;;;;1.10;1.09;;;;;;;19.97;58.56;100313.67;;;;-58
2019/10/16 02:24:35;;;;;;;1.04;1.04;;;;;;;19.96;58.54;100312.49;;;;-59
2019/10/16 02:27:35;;;;;;;1.21;1.13;;;;;;;19.97;58.53;100316.69;;;;-58
2019/10/16 02:30:35;;;;;;;1.20;1.10;;;;;;;19.96;58.53;100321.87;;;;-51
2019/10/16 02:33:35;;;;;;;1.30;1.20;;;;;;;19.96;58.51;100321.87;;;;-58
2019/10/16 02:36:35;;;;;;;1.17;1.10;;;;;;;19.96;58.57;100317.65;;;;-52
2019/10/16 02:39:34;;;;;;;1.29;1.19;;;;;;;19.95;58.57;100322.00;;;;-51
2019/10/16 02:42:34;;;;;;;1.23;1.17;;;;;;;19.95;58.53;100326.20;;;;-51
2019/10/16 02:45:35;;;;;;;1.29;1.19;;;;;;;19.95;58.56;100325.32;;;;-51
2019/10/16 02:48:35;;;;;;;1.27;1.00;;;;;;;19.95;58.56;100322.57;;;;-51
2019/10/16 02:51:35;;;;;;;1.06;1.04;;;;;;;19.95;58.55;100327.50;;;;-51
2019/10/16 02:54:35;;;;;;;1.21;1.20;;;;;;;19.95;58.52;100325.15;;;;-51
2019/10/16 02:57:34;;;;;;;1.19;1.10;;;;;;;19.95;58.52;100326.22;;;;-51
2019/10/16 03:00:34;;;;;;;1.18;1.12;;;;;;;19.94;58.52;100326.99;;;;-51
2019/10/16 03:03:35;;;;;;;1.17;1.10;;;;;;;19.94;58.55;100326.48;;;;-51
2019/10/16 03:06:35;;;;;;;1.25;1.19;;;;;;;19.94;58.54;100325.52;;;;-51
2019/10/16 03:09:34;;;;;;;1.25;1.13;;;;;;;19.94;58.50;100329.97;;;;-50
2019/10/16 03:12:35;;;;;;;1.29;1.19;;;;;;;19.94;58.54;100331.31;;;;-49
2019/10/16 03:15:35;;;;;;;1.15;1.05;;;;;;;19.93;58.50;100333.78;;;;-48
2019/10/16 03:18:35;;;;;;;1.36;1.18;;;;;;;19.93;58.51;100339.08;;;;-49
2019/10/16 03:21:35;;;;;;;1.19;1.10;;;;;;;19.93;58.47;100337.01;;;;-49
2019/10/16 03:24:35;;;;;;;1.13;1.10;;;;;;;19.92;58.52;100333.78;;;;-49
2019/10/16 03:30:35;;;;;;;1.26;1.17;;;;;;;19.92;58.52;100334.79;;;;-58
2019/10/16 03:34:34;;;;;;;1.09;1.09;;;;;;;19.92;58.53;100342.90;;;;-48
2019/10/16 03:38:35;;;;;;;1.29;1.20;;;;;;;19.92;58.52;100344.08;;;;-58
2019/10/16 03:43:35;;;;;;;1.11;1.01;;;;;;;19.92;58.51;100350.23;;;;-49
2019/10/16 03:49:35;;;;;;;1.09;1.08;;;;;;;19.91;58.52;100356.16;;;;-49
2019/10/16 03:53:35;;;;;;;1.09;1.08;;;;;;;19.91;58.47;100358.44;;;;-49
2019/10/16 03:57:35;;;;;;;1.07;1.07;;;;;;;19.91;58.49;100363.38;;;;-58
2019/10/16 04:00:35;;;;;;;1.27;1.17;;;;;;;19.91;58.52;100365.14;;;;-51
2019/10/16 04:03:35;;;;;;;1.05;1.03;;;;;;;19.90;58.49;100367.19;;;;-52
2019/10/16 04:06:35;;;;;;;1.11;1.05;;;;;;;19.90;58.50;100363.33;;;;-52
2019/10/16 04:09:35;;;;;;;1.11;1.05;;;;;;;19.90;58.50;100363.09;;;;-51
2019/10/16 04:12:35;;;;;;;1.33;1.11;;;;;;;19.90;58.49;100370.20;;;;-52
2019/10/16 04:18:35;;;;;;;0.99;0.99;;;;;;;19.89;58.49;100371.20;;;;-58
2019/10/16 04:21:35;;;;;;;1.14;1.05;;;;;;;19.89;58.45;100371.88;;;;-58
2019/10/16 04:24:35;;;;;;;1.54;0.97;;;;;;;19.90;58.46;100377.51;;;;-58
2019/10/16 04:27:35;;;;;;;1.75;1.15;;;;;;;19.89;58.49;100379.71;;;;-58
2019/10/16 04:30:35;;;;;;;1.20;1.10;;;;;;;19.89;58.46;100382.56;;;;-58
2019/10/16 04:33:35;;;;;;;1.19;1.09;;;;;;;19.89;58.47;100380.48;;;;-52
2019/10/16 04:36:35;;;;;;;1.24;1.14;;;;;;;19.89;58.44;100383.06;;;;-48
2019/10/16 04:39:35;;;;;;;1.59;1.08;;;;;;;19.88;58.49;100386.64;;;;-58
2019/10/16 04:42:35;;;;;;;2.46;1.23;;;;;;;19.91;58.50;100392.63;;;;-57
2019/10/16 04:45:35;;;;;;;1.73;1.27;;;;;;;19.91;58.48;100392.63;;;;-51
2019/10/16 04:48:35;;;;;;;1.21;1.10;;;;;;;19.92;58.39;100391.47;;;;-51
2019/10/16 04:51:35;;;;;;;1.17;1.12;;;;;;;19.93;58.37;100392.34;;;;-47
2019/10/16 04:54:35;;;;;;;1.19;1.15;;;;;;;19.95;58.28;100390.95;;;;-47
2019/10/16 04:57:35;;;;;;;1.23;1.13;;;;;;;19.97;58.22;100382.80;;;;-48
2019/10/16 05:00:35;;;;;;;1.33;1.23;;;;;;;19.99;58.23;100387.47;;;;-51
2019/10/16 05:03:35;;;;;;;1.09;1.09;;;;;;;20.02;58.24;100389.27;;;;-51
2019/10/16 05:06:35;;;;;;;1.55;1.10;;;;;;;20.05;58.25;100387.28;;;;-51
2019/10/16 05:09:35;;;;;;;2.13;1.20;;;;;;;20.08;58.28;100386.97;;;;-51
2019/10/16 05:12:35;;;;;;;2.11;1.07;;;;;;;20.11;58.30;100388.20;;;;-57
2019/10/16 05:15:35;;;;;;;2.01;1.00;;;;;;;20.14;58.37;100390.50;;;;-47
2019/10/16 05:18:35;;;;;;;1.51;1.11;;;;;;;20.18;58.46;100394.48;;;;-48
2019/10/16 05:21:35;;;;;;;1.09;1.06;;;;;;;20.21;58.57;100390.08;;;;-57
2019/10/16 05:24:35;;;;;;;1.00;1.00;;;;;;;20.23;58.50;100395.45;;;;-51
2019/10/16 05:27:35;;;;;;;1.21;1.11;;;;;;;20.25;58.37;100399.13;;;;-51
2019/10/16 05:30:35;;;;;;;1.20;1.10;;;;;;;20.28;58.41;100401.02;;;;-51
2019/10/16 05:33:35;;;;;;;1.19;1.09;;;;;;;20.30;58.53;100399.43;;;;-57
2019/10/16 05:36:35;;;;;;;1.19;1.08;;;;;;;20.33;58.68;100399.95;;;;-52
2019/10/16 05:39:35;;;;;;;1.17;1.09;;;;;;;20.35;58.50;100403.72;;;;-51
2019/10/16 05:42:35;;;;;;;1.53;1.11;;;;;;;20.36;58.53;100405.11;;;;-51
2019/10/16 05:45:35;;;;;;;1.07;1.01;;;;;;;20.38;58.60;100408.03;;;;-51
2019/10/16 05:48:35;;;;;;;1.61;1.03;;;;;;;20.39;58.56;100413.61;;;;-52
2019/10/16 05:51:35;;;;;;;1.29;1.15;;;;;;;20.41;58.54;100412.75;;;;-47
2019/10/16 05:54:35;;;;;;;1.29;1.19;;;;;;;20.42;58.54;100419.77;;;;-47
2019/10/16 05:57:35;;;;;;;0.97;0.97;;;;;;;20.43;58.49;100418.30;;;;-58
2019/10/16 06:00:35;;;;;;;1.09;1.00;;;;;;;20.44;58.46;100418.67;;;;-57
2019/10/16 06:03:35;;;;;;;1.19;1.08;;;;;;;20.45;58.44;100420.05;;;;-47
2019/10/16 06:06:35;;;;;;;1.12;1.02;;;;;;;20.46;58.41;100426.47;;;;-47
2019/10/16 06:09:35;;;;;;;1.03;0.99;;;;;;;20.46;58.41;100427.04;;;;-51
2019/10/16 06:12:35;;;;;;;1.03;1.02;;;;;;;20.47;58.39;100432.95;;;;-57
2019/10/16 06:15:35;;;;;;;1.12;1.02;;;;;;;20.47;58.36;100435.23;;;;-58
2019/10/16 06:18:35;;;;;;;1.23;1.10;;;;;;;20.47;58.36;100435.06;;;;-58
2019/10/16 06:21:35;;;;;;;1.20;1.10;;;;;;;20.47;58.32;100435.51;;;;-51
2019/10/16 06:24:35;;;;;;;1.31;1.08;;;;;;;20.48;58.36;100437.02;;;;-47
2019/10/16 06:27:35;;;;;;;1.03;1.00;;;;;;;20.48;58.31;100438.76;;;;-58
2019/10/16 06:30:35;;;;;;;0.93;0.93;;;;;;;20.48;58.37;100444.57;;;;-52
2019/10/16 06:33:35;;;;;;;1.03;1.03;;;;;;;20.48;58.36;100448.92;;;;-51
2019/10/16 06:36:35;;;;;;;1.08;1.04;;;;;;;20.48;58.32;100454.53;;;;-51
2019/10/16 06:39:35;;;;;;;2.28;1.10;;;;;;;20.48;58.25;100454.03;;;;-51
2019/10/16 06:42:35;;;;;;;1.05;0.97;;;;;;;20.48;58.26;100450.94;;;;-51
2019/10/16 06:45:35;;;;;;;1.00;1.00;;;;;;;20.48;58.18;100449.37;;;;-51
2019/10/16 06:48:35;;;;;;;0.90;0.90;;;;;;;20.47;58.19;100447.31;;;;-51
2019/10/16 06:51:35;;;;;;;1.13;1.03;;;;;;;20.48;58.13;100455.03;;;;-48
2019/10/16 06:54:35;;;;;;;0.96;0.96;;;;;;;20.47;58.18;100454.46;;;;-47
2019/10/16 06:57:35;;;;;;;0.91;0.91;;;;;;;20.47;58.16;100451.95;;;;-47
2019/10/16 07:00:35;;;;;;;1.01;1.00;;;;;;;20.47;58.01;100452.45;;;;-48
2019/10/16 07:03:35;;;;;;;1.28;1.13;;;;;;;20.47;57.92;100455.70;;;;-47
2019/10/16 07:06:35;;;;;;;0.99;0.99;;;;;;;20.46;57.76;100452.24;;;;-48
2019/10/16 07:09:35;;;;;;;0.90;0.90;;;;;;;20.47;58.00;100453.86;;;;-48
2019/10/16 07:12:35;;;;;;;1.15;1.05;;;;;;;20.47;57.96;100454.02;;;;-47
2019/10/16 07:15:35;;;;;;;1.21;1.12;;;;;;;20.47;58.00;100458.89;;;;-51
2019/10/16 07:18:35;;;;;;;1.14;1.10;;;;;;;20.48;58.02;100456.38;;;;-48
2019/10/16 07:21:35;;;;;;;1.00;1.00;;;;;;;20.46;57.94;100461.80;;;;-58
2019/10/16 07:24:35;;;;;;;1.23;1.08;;;;;;;20.47;57.97;100461.06;;;;-47
2019/10/16 07:27:35;;;;;;;0.93;0.93;;;;;;;20.47;57.91;100466.94;;;;-51
2019/10/16 07:30:35;;;;;;;0.95;0.95;;;;;;;20.47;57.88;100469.86;;;;-51
2019/10/16 07:33:35;;;;;;;0.93;0.93;;;;;;;20.47;57.72;100470.80;;;;-51
2019/10/16 07:36:35;;;;;;;1.07;1.05;;;;;;;20.48;57.77;100468.39;;;;-51
2019/10/16 07:39:35;;;;;;;0.90;0.90;;;;;;;20.47;57.69;100467.95;;;;-51
2019/10/16 07:42:35;;;;;;;1.00;1.00;;;;;;;20.46;57.61;100476.06;;;;-51
2019/10/16 07:45:35;;;;;;;0.99;0.99;;;;;;;20.47;57.72;100477.11;;;;-51
2019/10/16 07:48:35;;;;;;;0.90;0.90;;;;;;;20.47;57.61;100478.41;;;;-48
2019/10/16 07:51:35;;;;;;;1.01;1.00;;;;;;;20.47;57.73;100482.38;;;;-57
2019/10/16 07:54:35;;;;;;;1.00;0.98;;;;;;;20.47;57.63;100485.22;;;;-52
2019/10/16 07:57:35;;;;;;;1.02;0.95;;;;;;;20.46;57.61;100478.81;;;;-57
2019/10/16 08:00:35;;;;;;;0.90;0.90;;;;;;;20.46;57.63;100477.03;;;;-51
2019/10/16 08:03:35;;;;;;;0.91;0.91;;;;;;;20.45;57.58;100476.76;;;;-51
2019/10/16 08:06:35;;;;;;;0.90;0.90;;;;;;;20.46;57.61;100476.30;;;;-51
2019/10/16 08:09:35;;;;;;;0.91;0.91;;;;;;;20.44;57.68;100470.84;;;;-58
2019/10/16 08:12:34;;;;;;;0.85;0.85;;;;;;;20.44;57.72;100474.87;;;;-58
2019/10/16 08:15:35;;;;;;;0.89;0.89;;;;;;;20.44;57.63;100473.59;;;;-58
2019/10/16 08:18:35;;;;;;;0.95;0.95;;;;;;;20.43;57.64;100476.95;;;;-58
2019/10/16 08:21:35;;;;;;;3.29;1.54;;;;;;;20.25;54.13;100472.98;;;;-59
2019/10/16 08:24:35;;;;;;;4.15;1.64;;;;;;;19.95;53.57;100480.97;;;;-51
2019/10/16 08:27:35;;;;;;;5.87;1.67;;;;;;;19.83;53.95;100479.72;;;;-57
2019/10/16 08:30:35;;;;;;;3.93;1.75;;;;;;;19.93;54.96;100475.98;;;;-62
2019/10/16 08:33:35;;;;;;;5.13;1.71;;;;;;;19.99;55.22;100475.88;;;;-56
2019/10/16 08:36:35;;;;;;;4.47;1.60;;;;;;;20.04;55.50;100472.06;;;;-62
2019/10/16 08:39:35;;;;;;;3.91;1.59;;;;;;;20.09;55.99;100478.31;;;;-52
2019/10/16 08:42:35;;;;;;;4.52;1.65;;;;;;;20.15;56.03;100473.53;;;;-46
2019/10/16 08:45:35;;;;;;;3.38;1.63;;;;;;;20.18;56.20;100476.02;;;;-58
2019/10/16 08:48:35;;;;;;;3.89;1.46;;;;;;;20.22;56.52;100472.55;;;;-52
2019/10/16 08:51:35;;;;;;;3.03;1.58;;;;;;;20.23;56.48;100468.13;;;;-61
2019/10/16 08:54:35;;;;;;;5.09;1.61;;;;;;;20.25;56.70;100475.99;;;;-62
2019/10/16 08:57:35;;;;;;;2.99;1.51;;;;;;;20.28;56.71;100472.59;;;;-49
2019/10/16 09:00:35;;;;;;;5.47;1.44;;;;;;;20.30;56.75;100468.16;;;;-60
2019/10/16 09:03:35;;;;;;;2.19;1.49;;;;;;;20.32;56.88;100468.44;;;;-63
2019/10/16 09:06:35;;;;;;;3.03;1.65;;;;;;;20.34;56.90;100476.14;;;;-58
2019/10/16 09:09:35;;;;;;;2.17;1.29;;;;;;;20.35;56.99;100473.59;;;;-61
2019/10/16 09:12:36;;;;;;;1.99;1.21;;;;;;;20.36;57.06;100465.32;;;;-59
2019/10/16 09:15:35;;;;;;;3.20;1.50;;;;;;;20.38;57.17;100471.44;;;;-61
2019/10/16 09:18:35;;;;;;;2.34;1.45;;;;;;;20.40;57.19;100473.53;;;;-51
2019/10/16 09:21:35;;;;;;;2.55;1.41;;;;;;;20.42;57.40;100470.33;;;;-51
2019/10/16 09:24:35;;;;;;;1.97;1.39;;;;;;;20.43;57.43;100469.91;;;;-50
2019/10/16 09:27:35;;;;;;;2.77;1.35;;;;;;;20.44;57.35;100466.42;;;;-47
2019/10/16 09:30:34;;;;;;;2.12;1.31;;;;;;;20.45;57.38;100465.68;;;;-48
2019/10/16 09:33:34;;;;;;;2.39;1.50;;;;;;;20.46;57.35;100464.15;;;;-51
2019/10/16 09:36:35;;;;;;;3.66;1.42;;;;;;;20.47;57.40;100465.43;;;;-51
2019/10/16 09:39:35;;;;;;;1.88;1.26;;;;;;;20.48;57.43;100460.61;;;;-51
2019/10/16 09:42:35;;;;;;;2.67;1.45;;;;;;;20.49;57.55;100460.64;;;;-54
2019/10/16 09:45:35;;;;;;;1.57;1.20;;;;;;;20.50;57.51;100457.40;;;;-58
2019/10/16 09:48:35;;;;;;;3.66;1.32;;;;;;;20.51;57.56;100462.88;;;;-50
2019/10/16 09:51:35;;;;;;;1.25;1.14;;;;;;;20.51;57.58;100458.48;;;;-55
2019/10/16 09:54:35;;;;;;;1.95;1.32;;;;;;;20.52;57.51;100464.19;;;;-58
2019/10/16 09:57:35;;;;;;;2.32;1.35;;;;;;;20.51;57.57;100463.24;;;;-54
2019/10/16 10:00:35;;;;;;;2.52;1.51;;;;;;;20.50;57.51;100457.44;;;;-58
2019/10/16 10:03:35;;;;;;;3.29;1.44;;;;;;;20.49;57.48;100463.66;;;;-53
2019/10/16 10:06:35;;;;;;;2.07;1.20;;;;;;;20.49;57.45;100465.08;;;;-53
2019/10/16 10:09:34;;;;;;;2.29;1.20;;;;;;;20.49;57.50;100456.85;;;;-52
2019/10/16 10:12:34;;;;;;;2.14;1.17;;;;;;;20.50;57.50;100453.27;;;;-50
2019/10/16 10:15:35;;;;;;;3.69;1.40;;;;;;;20.49;57.55;100452.72;;;;-46
2019/10/16 10:18:35;;;;;;;3.10;1.34;;;;;;;20.51;57.50;100457.37;;;;-50
2019/10/16 10:21:35;;;;;;;2.45;1.20;;;;;;;20.52;57.47;100452.98;;;;-50
2019/10/16 10:24:35;;;;;;;2.30;1.25;;;;;;;20.54;57.52;100443.03;;;;-54
2019/10/16 10:27:35;;;;;;;1.59;1.37;;;;;;;20.54;57.45;100441.48;;;;-52
2019/10/16 10:30:35;;;;;;;2.25;1.41;;;;;;;20.54;57.46;100447.33;;;;-49
2019/10/16 10:33:35;;;;;;;2.49;1.56;;;;;;;20.56;57.50;100445.96;;;;-52
2019/10/16 10:36:35;;;;;;;1.54;1.22;;;;;;;20.55;57.51;100441.99;;;;-50
2019/10/16 10:39:35;;;;;;;2.95;1.39;;;;;;;20.56;57.53;100438.41;;;;-50
2019/10/16 10:42:35;;;;;;;2.58;1.21;;;;;;;20.55;57.55;100433.00;;;;-54
2019/10/16 10:45:35;;;;;;;1.65;1.20;;;;;;;20.55;57.56;100433.17;;;;-52
2019/10/16 10:48:35;;;;;;;2.64;1.19;;;;;;;20.53;57.49;100436.08;;;;-54
2019/10/16 10:51:35;;;;;;;1.63;1.18;;;;;;;20.52;57.53;100436.95;;;;-52
2019/10/16 10:54:35;;;;;;;2.89;1.29;;;;;;;20.52;57.46;100429.83;;;;-51
2019/10/16 10:57:35;;;;;;;2.21;1.29;;;;;;;20.53;57.42;100430.91;;;;-50
2019/10/16 11:00:35;;;;;;;1.62;1.12;;;;;;;20.52;57.43;100432.25;;;;-50
2019/10/16 11:03:35;;;;;;;1.64;1.11;;;;;;;20.51;57.40;100417.67;;;;-53
2019/10/16 11:06:35;;;;;;;1.89;1.23;;;;;;;20.51;57.36;100420.26;;;;-54
2019/10/16 11:09:35;;;;;;;1.21;1.10;;;;;;;20.50;57.38;100413.88;;;;-52
2019/10/16 11:12:35;;;;;;;1.30;1.20;;;;;;;20.49;57.34;100411.39;;;;-52
2019/10/16 11:15:35;;;;;;;2.01;1.17;;;;;;;20.49;57.32;100410.92;;;;-52
2019/10/16 11:18:35;;;;;;;1.38;1.20;;;;;;;20.48;57.30;100404.84;;;;-55
2019/10/16 11:21:35;;;;;;;1.31;1.15;;;;;;;20.48;57.31;100404.58;;;;-55
2019/10/16 11:24:53;;;;;;;1.79;1.27;;;;;;;20.48;57.28;100402.89;;;;-52
2019/10/16 11:27:35;;;;;;;1.49;1.19;;;;;;;20.48;57.29;100398.33;;;;-54
2019/10/16 11:30:34;;;;;;;1.34;1.20;;;;;;;20.47;57.29;100398.77;;;;-51
2019/10/16 11:33:34;;;;;;;1.35;1.11;;;;;;;20.47;57.25;100398.59;;;;-54
2019/10/16 11:36:34;;;;;;;3.22;1.18;;;;;;;20.47;57.23;100390.44;;;;-51
2019/10/16 11:39:35;;;;;;;1.73;1.17;;;;;;;20.46;57.25;100394.09;;;;-54
2019/10/16 11:42:35;;;;;;;1.84;1.20;;;;;;;20.45;57.23;100388.28;;;;-60
2019/10/16 11:45:35;;;;;;;1.24;1.13;;;;;;;20.45;57.23;100391.77;;;;-55
2019/10/16 11:48:35;;;;;;;1.87;1.13;;;;;;;20.45;57.26;100386.67;;;;-55
2019/10/16 11:51:35;;;;;;;1.84;1.33;;;;;;;20.43;57.24;100386.20;;;;-54
2019/10/16 11:54:35;;;;;;;1.23;1.13;;;;;;;20.44;57.23;100384.19;;;;-60
2019/10/16 11:57:35;;;;;;;1.19;1.09;;;;;;;20.44;57.21;100376.41;;;;-51
2019/10/16 12:00:35;;;;;;;1.20;1.10;;;;;;;20.44;57.17;100373.48;;;;-50
2019/10/16 12:03:35;;;;;;;1.27;1.13;;;;;;;20.44;57.18;100370.43;;;;-51
2019/10/16 12:06:35;;;;;;;2.56;1.29;;;;;;;20.43;57.21;100366.87;;;;-55
2019/10/16 12:09:34;;;;;;;1.39;1.06;;;;;;;20.42;57.23;100364.41;;;;-55
2019/10/16 12:12:35;;;;;;;1.23;1.13;;;;;;;20.43;57.34;100356.30;;;;-53
2019/10/16 12:15:34;;;;;;;1.60;1.11;;;;;;;20.45;57.30;100357.59;;;;-50
2019/10/16 12:18:35;;;;;;;2.99;1.21;;;;;;;20.47;57.33;100352.30;;;;-46
2019/10/16 12:21:35;;;;;;;1.24;1.14;;;;;;;20.48;57.39;100353.41;;;;-49
2019/10/16 12:24:35;;;;;;;1.19;1.01;;;;;;;20.49;57.40;100353.25;;;;-49
2019/10/16 12:27:34;;;;;;;1.29;1.03;;;;;;;20.50;57.43;100350.91;;;;-48
2019/10/16 12:30:35;;;;;;;1.39;1.17;;;;;;;20.50;57.47;100348.59;;;;-51
2019/10/16 12:33:35;;;;;;;1.85;1.14;;;;;;;20.49;57.44;100345.80;;;;-51
2019/10/16 12:36:35;;;;;;;2.09;1.28;;;;;;;20.49;57.52;100340.86;;;;-54
2019/10/16 12:39:35;;;;;;;2.69;1.23;;;;;;;20.51;57.39;100331.61;;;;-53
2019/10/16 12:42:35;;;;;;;1.51;1.20;;;;;;;20.51;57.37;100332.89;;;;-59
2019/10/16 12:45:35;;;;;;;2.87;1.36;;;;;;;20.53;57.52;100329.23;;;;-49
2019/10/16 12:48:34;;;;;;;2.70;1.30;;;;;;;20.53;57.47;100327.66;;;;-52
2019/10/16 12:51:34;;;;;;;3.03;1.22;;;;;;;20.53;57.48;100323.97;;;;-59
2019/10/16 12:54:35;;;;;;;2.23;1.22;;;;;;;20.54;57.43;100317.33;;;;-52
2019/10/16 12:57:35;;;;;;;2.12;1.26;;;;;;;20.56;57.47;100314.76;;;;-52
2019/10/16 13:00:35;;;;;;;2.12;1.28;;;;;;;20.54;57.44;100308.47;;;;-49
2019/10/16 13:03:34;;;;;;;2.03;1.30;;;;;;;20.53;57.44;100305.78;;;;-49
2019/10/16 13:06:35;;;;;;;7.34;1.33;;;;;;;20.52;57.42;100304.34;;;;-49
2019/10/16 13:09:35;;;;;;;1.53;1.27;;;;;;;20.52;57.40;100298.84;;;;-60
2019/10/16 13:12:35;;;;;;;2.55;1.30;;;;;;;20.52;57.39;100301.22;;;;-61
2019/10/16 13:15:35;;;;;;;4.35;1.25;;;;;;;20.50;57.53;100304.39;;;;-47
2019/10/16 13:18:35;;;;;;;1.39;1.13;;;;;;;20.53;57.50;100302.23;;;;-51
2019/10/16 13:21:35;;;;;;;4.57;1.20;;;;;;;20.53;57.43;100300.88;;;;-56
2019/10/16 13:24:34;;;;;;;2.37;1.33;;;;;;;20.54;57.41;100296.77;;;;-54
2019/10/16 13:27:34;;;;;;;2.81;1.20;;;;;;;20.53;57.42;100293.84;;;;-60
2019/10/16 13:30:34;;;;;;;3.57;1.23;;;;;;;20.52;57.54;100284.84;;;;-58
2019/10/16 13:33:34;;;;;;;4.23;1.44;;;;;;;20.54;57.50;100288.64;;;;-51
2019/10/16 13:36:35;;;;;;;3.53;1.40;;;;;;;20.55;57.45;100286.87;;;;-60
2019/10/16 13:39:35;;;;;;;2.29;1.22;;;;;;;20.54;57.46;100286.12;;;;-52
2019/10/16 13:42:35;;;;;;;1.28;1.13;;;;;;;20.52;57.45;100292.94;;;;-54
2019/10/16 13:45:35;;;;;;;2.59;1.31;;;;;;;20.52;57.47;100289.48;;;;-51
2019/10/16 13:48:35;;;;;;;3.09;1.15;;;;;;;20.52;57.45;100283.91;;;;-51
2019/10/16 13:51:35;;;;;;;3.25;1.19;;;;;;;20.52;57.42;100281.22;;;;-51
2019/10/16 13:54:35;;;;;;;1.63;1.10;;;;;;;20.51;57.38;100273.30;;;;-53
2019/10/16 13:57:35;;;;;;;2.33;1.23;;;;;;;20.50;57.40;100278.23;;;;-52
2019/10/16 14:00:34;;;;;;;2.37;1.15;;;;;;;20.50;57.39;100276.55;;;;-53
2019/10/16 14:03:34;;;;;;;1.85;1.10;;;;;;;20.50;57.38;100271.18;;;;-52
2019/10/16 14:06:34;;;;;;;3.15;1.37;;;;;;;20.50;57.36;100270.17;;;;-60
2019/10/16 14:09:35;;;;;;;2.11;1.24;;;;;;;20.50;57.32;100262.02;;;;-60
2019/10/16 14:12:35;;;;;;;2.99;1.12;;;;;;;20.48;57.38;100260.30;;;;-52
2019/10/16 14:15:35;;;;;;;1.34;1.12;;;;;;;20.48;57.34;100258.26;;;;-60
2019/10/16 14:18:35;;;;;;;6.16;1.38;;;;;;;20.47;57.46;100253.32;;;;-51
2019/10/16 14:21:35;;;;;;;3.76;1.37;;;;;;;20.49;57.42;100248.83;;;;-51
2019/10/16 14:24:35;;;;;;;2.45;1.35;;;;;;;20.49;57.44;100246.72;;;;-50
2019/10/16 14:27:35;;;;;;;7.95;1.47;;;;;;;20.48;57.50;100243.09;;;;-56
2019/10/16 14:30:35;;;;;;;5.31;1.42;;;;;;;20.50;57.41;100236.95;;;;-53
2019/10/16 14:33:35;;;;;;;3.89;1.30;;;;;;;20.50;57.48;100232.87;;;;-52
2019/10/16 14:36:34;;;;;;;3.12;1.39;;;;;;;20.49;57.45;100231.82;;;;-50
2019/10/16 14:39:34;;;;;;;7.87;1.47;;;;;;;20.50;57.44;100233.67;;;;-61
2019/10/16 14:45:34;;;;;;;4.88;1.39;;;;;;;20.48;57.44;100227.70;;;;-61
2019/10/16 14:48:34;;;;;;;1.57;1.07;;;;;;;20.48;57.43;100220.17;;;;-61
2019/10/16 14:51:35;;;;;;;4.51;1.59;;;;;;;20.47;57.42;100215.64;;;;-53
2019/10/16 14:54:34;;;;;;;3.93;1.32;;;;;;;20.47;57.41;100216.72;;;;-53
2019/10/16 14:57:35;;;;;;;3.87;1.34;;;;;;;20.46;57.42;100210.24;;;;-52
2019/10/16 15:00:35;;;;;;;2.19;1.29;;;;;;;20.46;57.41;100210.48;;;;-50
2019/10/16 15:03:35;;;;;;;3.65;1.23;;;;;;;20.46;57.41;100214.33;;;;-53
2019/10/16 15:06:35;;;;;;;3.49;1.41;;;;;;;20.45;57.41;100212.31;;;;-52
2019/10/16 15:09:35;;;;;;;2.31;1.33;;;;;;;20.44;57.77;100209.00;;;;-46
2019/10/16 15:12:34;;;;;;;5.03;1.50;;;;;;;20.46;57.67;100212.42;;;;-51
2019/10/16 15:15:34;;;;;;;3.70;1.31;;;;;;;20.48;57.69;100212.33;;;;-48
2019/10/16 15:18:34;;;;;;;3.15;1.29;;;;;;;20.50;57.75;100211.39;;;;-50
2019/10/16 15:21:35;;;;;;;5.33;1.49;;;;;;;20.51;57.76;100212.94;;;;-57
2019/10/16 15:24:35;;;;;;;3.14;1.46;;;;;;;20.52;57.83;100212.77;;;;-46
2019/10/16 15:27:35;;;;;;;5.78;1.41;;;;;;;20.53;57.79;100208.22;;;;-51
2019/10/16 15:30:34;;;;;;;2.91;1.51;;;;;;;20.53;57.85;100208.59;;;;-50
2019/10/16 15:33:34;;;;;;;5.01;1.49;;;;;;;20.55;57.87;100212.71;;;;-63
2019/10/16 15:36:34;;;;;;;5.41;1.55;;;;;;;20.56;57.87;100208.83;;;;-50
2019/10/16 15:39:35;;;;;;;4.20;1.25;;;;;;;20.56;57.86;100213.29;;;;-49
2019/10/16 15:42:35;;;;;;;5.70;1.43;;;;;;;20.58;57.84;100207.45;;;;-51
2019/10/16 15:45:35;;;;;;;3.85;1.40;;;;;;;20.57;57.79;100206.78;;;;-52
2019/10/16 15:48:35;;;;;;;4.03;1.52;;;;;;;20.58;57.89;100206.78;;;;-46
2019/10/16 15:51:34;;;;;;;4.31;1.55;;;;;;;20.58;57.84;100205.27;;;;-62
2019/10/16 15:54:34;;;;;;;3.66;1.49;;;;;;;20.59;57.86;100198.09;;;;-54
2019/10/16 15:57:34;;;;;;;3.24;1.33;;;;;;;20.59;57.89;100207.02;;;;-61
2019/10/16 16:00:34;;;;;;;4.25;1.44;;;;;;;20.61;57.88;100206.83;;;;-48
2019/10/16 16:03:35;;;;;;;2.83;1.42;;;;;;;20.61;57.94;100207.59;;;;-51
2019/10/16 16:06:35;;;;;;;5.96;1.50;;;;;;;20.61;57.91;100205.55;;;;-51
2019/10/16 16:09:34;;;;;;;2.35;1.29;;;;;;;20.62;57.89;100210.22;;;;-50
2019/10/16 16:12:34;;;;;;;6.15;1.50;;;;;;;20.62;57.90;100210.72;;;;-52
2019/10/16 16:15:35;;;;;;;4.49;1.40;;;;;;;20.63;57.96;100211.49;;;;-48
2019/10/16 16:18:35;;;;;;;3.89;1.29;;;;;;;20.63;57.79;100211.16;;;;-53
2019/10/16 16:21:35;;;;;;;5.45;1.49;;;;;;;20.62;57.85;100209.98;;;;-60
2019/10/16 16:24:35;;;;;;;5.88;1.53;;;;;;;20.65;57.70;100213.34;;;;-56
2019/10/16 16:27:35;;;;;;;5.91;1.43;;;;;;;20.67;57.83;100216.00;;;;-59
2019/10/16 16:30:34;;;;;;;8.00;1.82;;;;;;;20.67;57.84;100218.34;;;;-58
2019/10/16 16:33:34;;;;;;;6.88;1.62;;;;;;;20.67;57.90;100215.43;;;;-58
2019/10/16 16:36:35;;;;;;;4.90;1.55;;;;;;;20.69;57.80;100214.22;;;;-46
2019/10/16 16:39:34;;;;;;;3.58;1.52;;;;;;;20.68;57.87;100213.69;;;;-53
2019/10/16 16:42:34;;;;;;;5.51;1.48;;;;;;;20.69;57.81;100215.91;;;;-52
2019/10/16 16:45:35;;;;;;;4.37;1.49;;;;;;;20.69;57.83;100216.23;;;;-55
2019/10/16 16:48:34;;;;;;;6.31;1.60;;;;;;;20.69;57.82;100222.72;;;;-54
2019/10/16 16:51:34;;;;;;;6.61;1.65;;;;;;;20.69;57.72;100221.27;;;;-55
2019/10/16 16:54:34;;;;;;;3.09;1.50;;;;;;;20.67;57.86;100223.55;;;;-55
2019/10/16 16:57:35;;;;;;;9.63;1.84;;;;;;;20.67;57.69;100228.18;;;;-55
2019/10/16 17:00:35;;;;;;;6.25;1.58;;;;;;;20.67;57.75;100227.91;;;;-55
2019/10/16 17:03:35;;;;;;;6.87;1.75;;;;;;;20.65;57.75;100227.84;;;;-60